sensor_id;sensor_type;location;lat;lon;timestamp;pressure;altitude;pressure_sealevel;temperature
68446;BMP280;35789;48.414;12.768;2023-08-30T00:00:00;96280.0;;;
68446;BMP280;35789;48.414;12.768;2023-08-30T00:05:00;96270.0;;;
68446;BMP280;35789;48.414;12.768;2023-08-30T00:10:00;96280.0;;;
68446;BMP280;35789;48.414;12.768;2023-08-30T00:15:00;96290.0;;;
68446;BMP280;35789;48.414;12.768;2023-08-30T00:20:00;96290.0;;;
68446;BMP280;35789;48.414;12.768;2023-08-30T00:25:00;96290.0;;;
68446;BMP280;35789;48.414;12.768;2023-08-30T00:30:00;96290.0;;;
68446;BMP280;35789;48.414;12.768;2023-08-30T00:35:00;96300.0;;;
68446;BMP280;35789;48.414;12.768;2023-08-30T00:40:01;96300.0;;;
68446;BMP280;35789;48.414;12.768;2023-08-30T00:45:00;96300.0;;;
68446;BMP280;35789;48.414;12.768;2023-08-30T00:50:01;96300.0;;;
68446;BMP280;35789;48.414;12.768;2023-08-30T00:55:01;96300.0;;;
68446;BMP280;35789;48.414;12.768;2023-08-30T01:00:02;96300.0;;;
68446;BMP280;35789;48.414;12.768;2023-08-30T01:05:02;96300.0;;;
68446;BMP280;35789;48.414;12.768;2023-08-30T01:10:00;96300.0;;;
68446;BMP280;35789;48.414;12.768;2023-08-30T01:15:08;96300.0;;;
68446;BMP280;35789;48.414;12.768;2023-08-30T01:20:04;96300.0;;;
68446;BMP280;35789;48.414;12.768;2023-08-30T01:25:14;96300.0;;;
68446;BMP280;35789;48.414;12.768;2023-08-30T01:30:02;96300.0;;;
68446;BMP280;35789;48.414;12.768;2023-08-30T01:35:01;96290.0;;;
68446;BMP280;35789;48.414;12.768;2023-08-30T01:40:02;96290.0;;;
68446;BMP280;35789;48.414;12.768;2023-08-30T01:45:03;96290.0;;;
68446;BMP280;35789;48.414;12.768;2023-08-30T01:50:01;96300.0;;;
68446;BMP280;35789;48.414;12.768;2023-08-30T01:55:02;96300.0;;;
68446;BMP280;35789;48.414;12.768;2023-08-30T02:00:00;96300.0;;;
68446;BMP280;35789;48.414;12.768;2023-08-30T02:05:01;96310.0;;;
68446;BMP280;35789;48.414;12.768;2023-08-30T02:10:06;96300.0;;;
68446;BMP280;35789;48.414;12.768;2023-08-30T02:15:02;96300.0;;;
68446;BMP280;35789;48.414;12.768;2023-08-30T02:20:00;96300.0;;;
68446;BMP280;35789;48.414;12.768;2023-08-30T02:25:00;96310.0;;;
68446;BMP280;35789;48.414;12.768;2023-08-30T02:30:00;96310.0;;;
68446;BMP280;35789;48.414;12.768;2023-08-30T02:35:02;96310.0;;;
68446;BMP280;35789;48.414;12.768;2023-08-30T02:40:00;96300.0;;;
68446;BMP280;35789;48.414;12.768;2023-08-30T02:45:00;96300.0;;;
68446;BMP280;35789;48.414;12.768;2023-08-30T02:50:00;96310.0;;;
68446;BMP280;35789;48.414;12.768;2023-08-30T02:55:00;96310.0;;;
68446;BMP280;35789;48.414;12.768;2023-08-30T03:00:00;96310.0;;;
68446;BMP280;35789;48.414;12.768;2023-08-30T03:05:00;96310.0;;;
68446;BMP280;35789;48.414;12.768;2023-08-30T03:10:00;96310.0;;;
68446;BMP280;35789;48.414;12.768;2023-08-30T03:15:00;96310.0;;;
68446;BMP280;35789;48.414;12.768;2023-08-30T03:20:00;96300.0;;;
68446;BMP280;35789;48.414;12.768;2023-08-30T03:25:00;96300.0;;;
68446;BMP280;35789;48.414;12.768;2023-08-30T03:30:00;96300.0;;;
68446;BMP280;35789;48.414;12.768;2023-08-30T03:35:00;96290.0;;;
68446;BMP280;35789;48.414;12.768;2023-08-30T03:40:00;96290.0;;;
68446;BMP280;35789;48.414;12.768;2023-08-30T03:45:00;96300.0;;;
68446;BMP280;35789;48.414;12.768;2023-08-30T03:50:00;96300.0;;;
68446;BMP280;35789;48.414;12.768;2023-08-30T03:55:00;96300.0;;;
68446;BMP280;35789;48.414;12.768;2023-08-30T04:00:00;96300.0;;;
68446;BMP280;35789;48.414;12.768;2023-08-30T04:05:00;96290.0;;;
68446;BMP280;35789;48.414;12.768;2023-08-30T04:10:00;96290.0;;;
68446;BMP280;35789;48.414;12.768;2023-08-30T04:15:01;96300.0;;;
68446;BMP280;35789;48.414;12.768;2023-08-30T04:20:00;96300.0;;;
68446;BMP280;35789;48.414;12.768;2023-08-30T04:25:00;96300.0;;;
68446;BMP280;35789;48.414;12.768;2023-08-30T04:30:01;96310.0;;;
68446;BMP280;35789;48.414;12.768;2023-08-30T04:35:00;96310.0;;;
68446;BMP280;35789;48.414;12.768;2023-08-30T04:40:00;96310.0;;;
68446;BMP280;35789;48.414;12.768;2023-08-30T04:45:01;96310.0;;;
68446;BMP280;35789;48.414;12.768;2023-08-30T04:50:01;96310.0;;;
68446;BMP280;35789;48.414;12.768;2023-08-30T04:55:00;96310.0;;;
68446;BMP280;35789;48.414;12.768;2023-08-30T05:00:00;96320.0;;;
68446;BMP280;35789;48.414;12.768;2023-08-30T05:05:00;96320.0;;;
68446;BMP280;35789;48.414;12.768;2023-08-30T05:10:00;96310.0;;;
68446;BMP280;35789;48.414;12.768;2023-08-30T05:15:00;96310.0;;;
68446;BMP280;35789;48.414;12.768;2023-08-30T05:20:00;96310.0;;;
68446;BMP280;35789;48.414;12.768;2023-08-30T05:25:00;96310.0;;;
68446;BMP280;35789;48.414;12.768;2023-08-30T05:30:00;96310.0;;;
68446;BMP280;35789;48.414;12.768;2023-08-30T05:35:00;96310.0;;;
68446;BMP280;35789;48.414;12.768;2023-08-30T05:40:00;96310.0;;;
68446;BMP280;35789;48.414;12.768;2023-08-30T05:45:00;96310.0;;;
68446;BMP280;35789;48.414;12.768;2023-08-30T05:50:00;96320.0;;;
68446;BMP280;35789;48.414;12.768;2023-08-30T05:55:00;96320.0;;;
68446;BMP280;35789;48.414;12.768;2023-08-30T06:00:01;96320.0;;;
68446;BMP280;35789;48.414;12.768;2023-08-30T06:05:00;96320.0;;;
68446;BMP280;35789;48.414;12.768;2023-08-30T06:10:00;96330.0;;;
68446;BMP280;35789;48.414;12.768;2023-08-30T06:15:00;96330.0;;;
68446;BMP280;35789;48.414;12.768;2023-08-30T06:20:00;96320.0;;;
68446;BMP280;35789;48.414;12.768;2023-08-30T06:25:00;96320.0;;;
68446;BMP280;35789;48.414;12.768;2023-08-30T06:30:00;96320.0;;;
68446;BMP280;35789;48.414;12.768;2023-08-30T06:35:01;96330.0;;;
68446;BMP280;35789;48.414;12.768;2023-08-30T06:40:00;96330.0;;;
68446;BMP280;35789;48.414;12.768;2023-08-30T06:45:01;96330.0;;;
68446;BMP280;35789;48.414;12.768;2023-08-30T06:50:01;96330.0;;;
68446;BMP280;35789;48.414;12.768;2023-08-30T06:55:00;96340.0;;;
68446;BMP280;35789;48.414;12.768;2023-08-30T07:00:00;96340.0;;;
68446;BMP280;35789;48.414;12.768;2023-08-30T07:05:00;96330.0;;;
68446;BMP280;35789;48.414;12.768;2023-08-30T07:10:00;96320.0;;;
68446;BMP280;35789;48.414;12.768;2023-08-30T07:15:01;96320.0;;;
68446;BMP280;35789;48.414;12.768;2023-08-30T07:20:00;96320.0;;;
68446;BMP280;35789;48.414;12.768;2023-08-30T07:25:00;96330.0;;;
68446;BMP280;35789;48.414;12.768;2023-08-30T07:30:00;96330.0;;;
68446;BMP280;35789;48.414;12.768;2023-08-30T07:35:00;96330.0;;;
68446;BMP280;35789;48.414;12.768;2023-08-30T07:40:00;96330.0;;;
68446;BMP280;35789;48.414;12.768;2023-08-30T07:45:00;96330.0;;;
68446;BMP280;35789;48.414;12.768;2023-08-30T07:50:00;96330.0;;;
68446;BMP280;35789;48.414;12.768;2023-08-30T07:55:00;96330.0;;;
68446;BMP280;35789;48.414;12.768;2023-08-30T08:00:00;96340.0;;;
68446;BMP280;35789;48.414;12.768;2023-08-30T08:05:00;96340.0;;;
68446;BMP280;35789;48.414;12.768;2023-08-30T08:10:00;96350.0;;;
68446;BMP280;35789;48.414;12.768;2023-08-30T08:15:00;96350.0;;;
68446;BMP280;35789;48.414;12.768;2023-08-30T08:20:00;96340.0;;;
68446;BMP280;35789;48.414;12.768;2023-08-30T08:25:00;96340.0;;;
68446;BMP280;35789;48.414;12.768;2023-08-30T08:30:00;96350.0;;;
68446;BMP280;35789;48.414;12.768;2023-08-30T08:35:00;96340.0;;;
68446;BMP280;35789;48.414;12.768;2023-08-30T08:40:00;96350.0;;;
68446;BMP280;35789;48.414;12.768;2023-08-30T08:45:02;96350.0;;;
68446;BMP280;35789;48.414;12.768;2023-08-30T08:50:00;96350.0;;;
68446;BMP280;35789;48.414;12.768;2023-08-30T08:55:01;96350.0;;;
68446;BMP280;35789;48.414;12.768;2023-08-30T09:00:00;96350.0;;;
68446;BMP280;35789;48.414;12.768;2023-08-30T09:05:00;96350.0;;;
68446;BMP280;35789;48.414;12.768;2023-08-30T09:10:01;96350.0;;;
68446;BMP280;35789;48.414;12.768;2023-08-30T09:15:00;96350.0;;;
68446;BMP280;35789;48.414;12.768;2023-08-30T09:20:05;96340.0;;;
68446;BMP280;35789;48.414;12.768;2023-08-30T09:25:00;96340.0;;;
68446;BMP280;35789;48.414;12.768;2023-08-30T09:30:00;96340.0;;;
68446;BMP280;35789;48.414;12.768;2023-08-30T09:35:04;96330.0;;;
68446;BMP280;35789;48.414;12.768;2023-08-30T09:40:00;96330.0;;;
68446;BMP280;35789;48.414;12.768;2023-08-30T09:45:01;96330.0;;;
68446;BMP280;35789;48.414;12.768;2023-08-30T09:50:02;96320.0;;;
68446;BMP280;35789;48.414;12.768;2023-08-30T09:55:02;96310.0;;;
68446;BMP280;35789;48.414;12.768;2023-08-30T10:00:01;96310.0;;;
68446;BMP280;35789;48.414;12.768;2023-08-30T10:05:00;96310.0;;;
68446;BMP280;35789;48.414;12.768;2023-08-30T10:10:02;96310.0;;;
68446;BMP280;35789;48.414;12.768;2023-08-30T10:15:01;96300.0;;;
68446;BMP280;35789;48.414;12.768;2023-08-30T10:20:04;96300.0;;;
68446;BMP280;35789;48.414;12.768;2023-08-30T10:25:03;96300.0;;;
68446;BMP280;35789;48.414;12.768;2023-08-30T10:30:02;96290.0;;;
68446;BMP280;35789;48.414;12.768;2023-08-30T10:35:01;96300.0;;;
68446;BMP280;35789;48.414;12.768;2023-08-30T10:40:01;96290.0;;;
68446;BMP280;35789;48.414;12.768;2023-08-30T10:45:04;96290.0;;;
68446;BMP280;35789;48.414;12.768;2023-08-30T10:50:05;96280.0;;;
68446;BMP280;35789;48.414;12.768;2023-08-30T10:55:09;96280.0;;;
68446;BMP280;35789;48.414;12.768;2023-08-30T11:00:06;96280.0;;;
68446;BMP280;35789;48.414;12.768;2023-08-30T11:05:00;96290.0;;;
68446;BMP280;35789;48.414;12.768;2023-08-30T11:10:00;96290.0;;;
68446;BMP280;35789;48.414;12.768;2023-08-30T11:15:01;96300.0;;;
68446;BMP280;35789;48.414;12.768;2023-08-30T11:20:07;96310.0;;;
68446;BMP280;35789;48.414;12.768;2023-08-30T11:25:00;96310.0;;;
68446;BMP280;35789;48.414;12.768;2023-08-30T11:30:01;96300.0;;;
68446;BMP280;35789;48.414;12.768;2023-08-30T11:35:01;96300.0;;;
68446;BMP280;35789;48.414;12.768;2023-08-30T11:40:02;96300.0;;;
68446;BMP280;35789;48.414;12.768;2023-08-30T11:45:01;96290.0;;;
68446;BMP280;35789;48.414;12.768;2023-08-30T11:50:00;96290.0;;;
68446;BMP280;35789;48.414;12.768;2023-08-30T11:55:00;96290.0;;;
68446;BMP280;35789;48.414;12.768;2023-08-30T12:00:06;96290.0;;;
68446;BMP280;35789;48.414;12.768;2023-08-30T12:05:00;96290.0;;;
68446;BMP280;35789;48.414;12.768;2023-08-30T12:10:04;96280.0;;;
68446;BMP280;35789;48.414;12.768;2023-08-30T12:15:01;96280.0;;;
68446;BMP280;35789;48.414;12.768;2023-08-30T12:20:00;96270.0;;;
68446;BMP280;35789;48.414;12.768;2023-08-30T12:25:00;96270.0;;;
68446;BMP280;35789;48.414;12.768;2023-08-30T12:30:00;96270.0;;;
68446;BMP280;35789;48.414;12.768;2023-08-30T12:35:00;96270.0;;;
68446;BMP280;35789;48.414;12.768;2023-08-30T12:40:00;96260.0;;;
68446;BMP280;35789;48.414;12.768;2023-08-30T12:45:00;96260.0;;;
68446;BMP280;35789;48.414;12.768;2023-08-30T12:50:00;96250.0;;;
68446;BMP280;35789;48.414;12.768;2023-08-30T12:55:00;96250.0;;;
68446;BMP280;35789;48.414;12.768;2023-08-30T13:00:00;96250.0;;;
68446;BMP280;35789;48.414;12.768;2023-08-30T13:05:00;96230.0;;;
68446;BMP280;35789;48.414;12.768;2023-08-30T13:10:00;96230.0;;;
68446;BMP280;35789;48.414;12.768;2023-08-30T13:15:00;96250.0;;;
68446;BMP280;35789;48.414;12.768;2023-08-30T13:20:00;96250.0;;;
68446;BMP280;35789;48.414;12.768;2023-08-30T13:25:01;96250.0;;;
68446;BMP280;35789;48.414;12.768;2023-08-30T13:30:00;96250.0;;;
68446;BMP280;35789;48.414;12.768;2023-08-30T13:35:00;96250.0;;;
68446;BMP280;35789;48.414;12.768;2023-08-30T13:40:00;96260.0;;;
68446;BMP280;35789;48.414;12.768;2023-08-30T13:45:00;96260.0;;;
68446;BMP280;35789;48.414;12.768;2023-08-30T13:50:00;96250.0;;;
68446;BMP280;35789;48.414;12.768;2023-08-30T13:55:00;96250.0;;;
68446;BMP280;35789;48.414;12.768;2023-08-30T14:00:00;96250.0;;;
68446;BMP280;35789;48.414;12.768;2023-08-30T14:05:00;96260.0;;;
68446;BMP280;35789;48.414;12.768;2023-08-30T14:10:00;96260.0;;;
68446;BMP280;35789;48.414;12.768;2023-08-30T14:15:00;96270.0;;;
68446;BMP280;35789;48.414;12.768;2023-08-30T14:20:00;96260.0;;;
68446;BMP280;35789;48.414;12.768;2023-08-30T14:25:02;96260.0;;;
68446;BMP280;35789;48.414;12.768;2023-08-30T14:30:00;96260.0;;;
68446;BMP280;35789;48.414;12.768;2023-08-30T14:35:03;96260.0;;;
68446;BMP280;35789;48.414;12.768;2023-08-30T14:40:00;96260.0;;;
68446;BMP280;35789;48.414;12.768;2023-08-30T14:45:00;96270.0;;;
68446;BMP280;35789;48.414;12.768;2023-08-30T14:50:00;96260.0;;;
68446;BMP280;35789;48.414;12.768;2023-08-30T14:55:00;96260.0;;;
68446;BMP280;35789;48.414;12.768;2023-08-30T15:00:00;96260.0;;;
68446;BMP280;35789;48.414;12.768;2023-08-30T15:05:00;96260.0;;;
68446;BMP280;35789;48.414;12.768;2023-08-30T15:10:00;96260.0;;;
68446;BMP280;35789;48.414;12.768;2023-08-30T15:15:00;96270.0;;;
68446;BMP280;35789;48.414;12.768;2023-08-30T15:20:00;96270.0;;;
68446;BMP280;35789;48.414;12.768;2023-08-30T15:25:01;96270.0;;;
68446;BMP280;35789;48.414;12.768;2023-08-30T15:30:00;96270.0;;;
68446;BMP280;35789;48.414;12.768;2023-08-30T15:35:00;96270.0;;;
68446;BMP280;35789;48.414;12.768;2023-08-30T15:40:03;96270.0;;;
68446;BMP280;35789;48.414;12.768;2023-08-30T15:45:01;96270.0;;;
68446;BMP280;35789;48.414;12.768;2023-08-30T15:50:00;96270.0;;;
68446;BMP280;35789;48.414;12.768;2023-08-30T15:55:00;96270.0;;;
68446;BMP280;35789;48.414;12.768;2023-08-30T16:00:00;96280.0;;;
68446;BMP280;35789;48.414;12.768;2023-08-30T16:05:00;96280.0;;;
68446;BMP280;35789;48.414;12.768;2023-08-30T16:10:00;96280.0;;;
68446;BMP280;35789;48.414;12.768;2023-08-30T16:15:00;96280.0;;;
68446;BMP280;35789;48.414;12.768;2023-08-30T16:20:00;96280.0;;;
68446;BMP280;35789;48.414;12.768;2023-08-30T16:25:00;96280.0;;;
68446;BMP280;35789;48.414;12.768;2023-08-30T16:30:00;96280.0;;;
68446;BMP280;35789;48.414;12.768;2023-08-30T16:35:00;96290.0;;;
68446;BMP280;35789;48.414;12.768;2023-08-30T16:40:00;96290.0;;;
68446;BMP280;35789;48.414;12.768;2023-08-30T16:45:00;96290.0;;;
68446;BMP280;35789;48.414;12.768;2023-08-30T16:50:00;96300.0;;;
68446;BMP280;35789;48.414;12.768;2023-08-30T16:55:00;96300.0;;;
68446;BMP280;35789;48.414;12.768;2023-08-30T17:00:00;96300.0;;;
68446;BMP280;35789;48.414;12.768;2023-08-30T17:05:00;96300.0;;;
68446;BMP280;35789;48.414;12.768;2023-08-30T17:10:00;96300.0;;;
68446;BMP280;35789;48.414;12.768;2023-08-30T17:15:00;96300.0;;;
68446;BMP280;35789;48.414;12.768;2023-08-30T17:20:00;96300.0;;;
68446;BMP280;35789;48.414;12.768;2023-08-30T17:25:00;96310.0;;;
68446;BMP280;35789;48.414;12.768;2023-08-30T17:30:00;96300.0;;;
68446;BMP280;35789;48.414;12.768;2023-08-30T17:35:00;96310.0;;;
68446;BMP280;35789;48.414;12.768;2023-08-30T17:40:00;96310.0;;;
68446;BMP280;35789;48.414;12.768;2023-08-30T17:45:00;96310.0;;;
68446;BMP280;35789;48.414;12.768;2023-08-30T17:50:00;96310.0;;;
68446;BMP280;35789;48.414;12.768;2023-08-30T17:55:00;96310.0;;;
68446;BMP280;35789;48.414;12.768;2023-08-30T18:00:01;96310.0;;;
68446;BMP280;35789;48.414;12.768;2023-08-30T18:05:00;96310.0;;;
68446;BMP280;35789;48.414;12.768;2023-08-30T18:10:00;96310.0;;;
68446;BMP280;35789;48.414;12.768;2023-08-30T18:15:00;96320.0;;;
68446;BMP280;35789;48.414;12.768;2023-08-30T18:20:00;96330.0;;;
68446;BMP280;35789;48.414;12.768;2023-08-30T18:25:00;96330.0;;;
68446;BMP280;35789;48.414;12.768;2023-08-30T18:30:00;96330.0;;;
68446;BMP280;35789;48.414;12.768;2023-08-30T18:35:00;96340.0;;;
68446;BMP280;35789;48.414;12.768;2023-08-30T18:40:00;96340.0;;;
68446;BMP280;35789;48.414;12.768;2023-08-30T18:45:00;96340.0;;;
68446;BMP280;35789;48.414;12.768;2023-08-30T18:50:00;96350.0;;;
68446;BMP280;35789;48.414;12.768;2023-08-30T18:55:00;96360.0;;;
68446;BMP280;35789;48.414;12.768;2023-08-30T19:00:00;96370.0;;;
68446;BMP280;35789;48.414;12.768;2023-08-30T19:05:00;96370.0;;;
68446;BMP280;35789;48.414;12.768;2023-08-30T19:10:00;96390.0;;;
68446;BMP280;35789;48.414;12.768;2023-08-30T19:15:00;96390.0;;;
68446;BMP280;35789;48.414;12.768;2023-08-30T19:20:00;96390.0;;;
68446;BMP280;35789;48.414;12.768;2023-08-30T19:25:00;96390.0;;;
68446;BMP280;35789;48.414;12.768;2023-08-30T19:30:00;96390.0;;;
68446;BMP280;35789;48.414;12.768;2023-08-30T19:35:00;96390.0;;;
68446;BMP280;35789;48.414;12.768;2023-08-30T19:40:00;96390.0;;;
68446;BMP280;35789;48.414;12.768;2023-08-30T19:45:00;96390.0;;;
68446;BMP280;35789;48.414;12.768;2023-08-30T19:50:00;96390.0;;;
68446;BMP280;35789;48.414;12.768;2023-08-30T19:55:00;96390.0;;;
68446;BMP280;35789;48.414;12.768;2023-08-30T20:00:00;96400.0;;;
68446;BMP280;35789;48.414;12.768;2023-08-30T20:05:00;96400.0;;;
68446;BMP280;35789;48.414;12.768;2023-08-30T20:10:00;96400.0;;;
68446;BMP280;35789;48.414;12.768;2023-08-30T20:15:00;96410.0;;;
68446;BMP280;35789;48.414;12.768;2023-08-30T20:20:00;96410.0;;;
68446;BMP280;35789;48.414;12.768;2023-08-30T20:25:00;96400.0;;;
68446;BMP280;35789;48.414;12.768;2023-08-30T20:30:00;96410.0;;;
68446;BMP280;35789;48.414;12.768;2023-08-30T20:35:00;96410.0;;;
68446;BMP280;35789;48.414;12.768;2023-08-30T20:40:01;96420.0;;;
68446;BMP280;35789;48.414;12.768;2023-08-30T20:45:00;96420.0;;;
68446;BMP280;35789;48.414;12.768;2023-08-30T20:50:00;96420.0;;;
68446;BMP280;35789;48.414;12.768;2023-08-30T20:55:00;96420.0;;;
68446;BMP280;35789;48.414;12.768;2023-08-30T21:00:00;96420.0;;;
68446;BMP280;35789;48.414;12.768;2023-08-30T21:05:00;96420.0;;;
68446;BMP280;35789;48.414;12.768;2023-08-30T21:10:00;96420.0;;;
68446;BMP280;35789;48.414;12.768;2023-08-30T21:15:00;96420.0;;;
68446;BMP280;35789;48.414;12.768;2023-08-30T21:20:00;96420.0;;;
68446;BMP280;35789;48.414;12.768;2023-08-30T21:25:00;96410.0;;;
68446;BMP280;35789;48.414;12.768;2023-08-30T21:30:00;96420.0;;;
68446;BMP280;35789;48.414;12.768;2023-08-30T21:35:00;96420.0;;;
68446;BMP280;35789;48.414;12.768;2023-08-30T21:40:00;96420.0;;;
68446;BMP280;35789;48.414;12.768;2023-08-30T21:45:01;96420.0;;;
68446;BMP280;35789;48.414;12.768;2023-08-30T21:50:00;96420.0;;;
68446;BMP280;35789;48.414;12.768;2023-08-30T21:55:00;96430.0;;;
68446;BMP280;35789;48.414;12.768;2023-08-30T22:00:00;96420.0;;;
68446;BMP280;35789;48.414;12.768;2023-08-30T22:05:00;96430.0;;;
68446;BMP280;35789;48.414;12.768;2023-08-30T22:10:00;96430.0;;;
68446;BMP280;35789;48.414;12.768;2023-08-30T22:15:00;96420.0;;;
68446;BMP280;35789;48.414;12.768;2023-08-30T22:20:00;96420.0;;;
68446;BMP280;35789;48.414;12.768;2023-08-30T22:25:00;96410.0;;;
68446;BMP280;35789;48.414;12.768;2023-08-30T22:30:01;96410.0;;;
68446;BMP280;35789;48.414;12.768;2023-08-30T22:35:02;96410.0;;;
68446;BMP280;35789;48.414;12.768;2023-08-30T22:40:02;96410.0;;;
68446;BMP280;35789;48.414;12.768;2023-08-30T22:45:00;96410.0;;;
68446;BMP280;35789;48.414;12.768;2023-08-30T22:50:00;96400.0;;;
68446;BMP280;35789;48.414;12.768;2023-08-30T22:55:00;96400.0;;;
68446;BMP280;35789;48.414;12.768;2023-08-30T23:00:01;96400.0;;;
68446;BMP280;35789;48.414;12.768;2023-08-30T23:05:01;96400.0;;;
68446;BMP280;35789;48.414;12.768;2023-08-30T23:10:00;96400.0;;;
68446;BMP280;35789;48.414;12.768;2023-08-30T23:15:00;96390.0;;;
68446;BMP280;35789;48.414;12.768;2023-08-30T23:20:00;96400.0;;;
68446;BMP280;35789;48.414;12.768;2023-08-30T23:25:00;96410.0;;;
68446;BMP280;35789;48.414;12.768;2023-08-30T23:30:00;96410.0;;;
68446;BMP280;35789;48.414;12.768;2023-08-30T23:35:01;96400.0;;;
68446;BMP280;35789;48.414;12.768;2023-08-30T23:40:00;96390.0;;;
68446;BMP280;35789;48.414;12.768;2023-08-30T23:45:00;96400.0;;;
68446;BMP280;35789;48.414;12.768;2023-08-30T23:50:00;96400.0;;;
68446;BMP280;35789;48.414;12.768;2023-08-30T23:55:01;96410.0;;;
